sensor_id;sensor_type;location;lat;lon;timestamp;P1;durP1;ratioP1;P2;durP2;ratioP2
2408;SDS011;8463;48.094;7.970;2023-09-30T00:00:37;6.73;;;3.00;;
2408;SDS011;8463;48.094;7.970;2023-09-30T00:03:03;5.20;;;3.60;;
2408;SDS011;8463;48.094;7.970;2023-09-30T00:05:28;5.13;;;2.70;;
2408;SDS011;8463;48.094;7.970;2023-09-30T00:07:54;6.83;;;2.40;;
2408;SDS011;8463;48.094;7.970;2023-09-30T00:10:19;4.13;;;2.60;;
2408;SDS011;8463;48.094;7.970;2023-09-30T00:12:45;5.30;;;3.60;;
2408;SDS011;8463;48.094;7.970;2023-09-30T00:15:11;3.43;;;2.37;;
2408;SDS011;8463;48.094;7.970;2023-09-30T00:17:36;7.17;;;3.20;;
2408;SDS011;8463;48.094;7.970;2023-09-30T00:20:02;5.10;;;2.60;;
2408;SDS011;8463;48.094;7.970;2023-09-30T00:22:29;6.07;;;2.97;;
2408;SDS011;8463;48.094;7.970;2023-09-30T00:24:54;4.50;;;3.30;;
2408;SDS011;8463;48.094;7.970;2023-09-30T00:27:20;7.80;;;3.40;;
2408;SDS011;8463;48.094;7.970;2023-09-30T00:29:46;5.40;;;2.87;;
2408;SDS011;8463;48.094;7.970;2023-09-30T00:32:11;5.47;;;2.87;;
2408;SDS011;8463;48.094;7.970;2023-09-30T00:34:37;6.60;;;2.63;;
2408;SDS011;8463;48.094;7.970;2023-09-30T00:37:03;5.20;;;2.77;;
2408;SDS011;8463;48.094;7.970;2023-09-30T00:39:29;5.50;;;2.70;;
2408;SDS011;8463;48.094;7.970;2023-09-30T00:41:55;5.60;;;2.70;;
2408;SDS011;8463;48.094;7.970;2023-09-30T00:44:26;4.17;;;2.20;;
2408;SDS011;8463;48.094;7.970;2023-09-30T00:46:52;4.07;;;2.40;;
2408;SDS011;8463;48.094;7.970;2023-09-30T00:49:18;6.67;;;2.80;;
2408;SDS011;8463;48.094;7.970;2023-09-30T00:51:47;6.93;;;2.70;;
2408;SDS011;8463;48.094;7.970;2023-09-30T00:54:16;4.57;;;2.73;;
2408;SDS011;8463;48.094;7.970;2023-09-30T00:56:44;5.17;;;3.03;;
2408;SDS011;8463;48.094;7.970;2023-09-30T00:59:11;4.77;;;2.60;;
2408;SDS011;8463;48.094;7.970;2023-09-30T01:01:37;6.80;;;3.50;;
2408;SDS011;8463;48.094;7.970;2023-09-30T01:04:06;3.83;;;2.60;;
2408;SDS011;8463;48.094;7.970;2023-09-30T01:06:32;5.37;;;3.00;;
2408;SDS011;8463;48.094;7.970;2023-09-30T01:08:58;5.40;;;2.77;;
2408;SDS011;8463;48.094;7.970;2023-09-30T01:11:24;4.53;;;2.50;;
2408;SDS011;8463;48.094;7.970;2023-09-30T01:13:51;7.33;;;2.73;;
2408;SDS011;8463;48.094;7.970;2023-09-30T01:16:16;5.30;;;2.50;;
2408;SDS011;8463;48.094;7.970;2023-09-30T01:18:42;3.70;;;2.70;;
2408;SDS011;8463;48.094;7.970;2023-09-30T01:21:08;7.20;;;3.43;;
2408;SDS011;8463;48.094;7.970;2023-09-30T01:23:34;5.67;;;2.80;;
2408;SDS011;8463;48.094;7.970;2023-09-30T01:26:10;3.93;;;3.20;;
2408;SDS011;8463;48.094;7.970;2023-09-30T01:28:39;5.00;;;2.73;;
2408;SDS011;8463;48.094;7.970;2023-09-30T01:31:05;4.90;;;2.90;;
2408;SDS011;8463;48.094;7.970;2023-09-30T01:33:32;5.30;;;2.50;;
2408;SDS011;8463;48.094;7.970;2023-09-30T01:35:58;3.67;;;2.87;;
2408;SDS011;8463;48.094;7.970;2023-09-30T01:38:27;5.07;;;2.80;;
2408;SDS011;8463;48.094;7.970;2023-09-30T01:40:53;4.57;;;2.20;;
2408;SDS011;8463;48.094;7.970;2023-09-30T01:43:19;3.10;;;2.03;;
2408;SDS011;8463;48.094;7.970;2023-09-30T01:45:45;5.90;;;2.50;;
2408;SDS011;8463;48.094;7.970;2023-09-30T01:48:10;4.93;;;2.60;;
2408;SDS011;8463;48.094;7.970;2023-09-30T01:50:39;4.10;;;2.43;;
2408;SDS011;8463;48.094;7.970;2023-09-30T01:53:05;6.17;;;3.10;;
2408;SDS011;8463;48.094;7.970;2023-09-30T01:55:32;3.80;;;2.20;;
2408;SDS011;8463;48.094;7.970;2023-09-30T01:57:58;4.47;;;2.90;;
2408;SDS011;8463;48.094;7.970;2023-09-30T02:00:24;3.87;;;2.73;;
2408;SDS011;8463;48.094;7.970;2023-09-30T02:02:50;4.63;;;2.67;;
2408;SDS011;8463;48.094;7.970;2023-09-30T02:05:16;4.00;;;2.60;;
2408;SDS011;8463;48.094;7.970;2023-09-30T02:07:41;5.43;;;2.77;;
2408;SDS011;8463;48.094;7.970;2023-09-30T02:10:08;5.53;;;2.83;;
2408;SDS011;8463;48.094;7.970;2023-09-30T02:12:34;3.70;;;2.70;;
2408;SDS011;8463;48.094;7.970;2023-09-30T02:15:02;4.70;;;2.83;;
2408;SDS011;8463;48.094;7.970;2023-09-30T02:17:29;5.40;;;2.80;;
2408;SDS011;8463;48.094;7.970;2023-09-30T02:19:54;5.50;;;2.60;;
2408;SDS011;8463;48.094;7.970;2023-09-30T02:22:20;6.97;;;4.60;;
2408;SDS011;8463;48.094;7.970;2023-09-30T02:24:46;4.53;;;2.80;;
2408;SDS011;8463;48.094;7.970;2023-09-30T02:27:13;4.33;;;2.80;;
2408;SDS011;8463;48.094;7.970;2023-09-30T02:29:39;5.33;;;2.90;;
2408;SDS011;8463;48.094;7.970;2023-09-30T02:32:04;3.60;;;2.57;;
2408;SDS011;8463;48.094;7.970;2023-09-30T02:34:30;3.93;;;2.33;;
2408;SDS011;8463;48.094;7.970;2023-09-30T02:36:58;2.40;;;2.20;;
2408;SDS011;8463;48.094;7.970;2023-09-30T02:39:25;4.73;;;2.63;;
2408;SDS011;8463;48.094;7.970;2023-09-30T02:41:51;3.67;;;2.13;;
2408;SDS011;8463;48.094;7.970;2023-09-30T02:44:17;6.87;;;3.00;;
2408;SDS011;8463;48.094;7.970;2023-09-30T02:46:43;5.97;;;3.13;;
2408;SDS011;8463;48.094;7.970;2023-09-30T02:49:09;6.20;;;2.93;;
2408;SDS011;8463;48.094;7.970;2023-09-30T02:51:34;5.50;;;2.90;;
2408;SDS011;8463;48.094;7.970;2023-09-30T02:54:00;4.57;;;2.70;;
2408;SDS011;8463;48.094;7.970;2023-09-30T02:56:27;5.10;;;2.30;;
2408;SDS011;8463;48.094;7.970;2023-09-30T02:58:55;3.50;;;2.40;;
2408;SDS011;8463;48.094;7.970;2023-09-30T03:01:24;4.07;;;2.27;;
2408;SDS011;8463;48.094;7.970;2023-09-30T03:03:51;3.80;;;2.80;;
2408;SDS011;8463;48.094;7.970;2023-09-30T03:06:17;6.67;;;2.57;;
2408;SDS011;8463;48.094;7.970;2023-09-30T03:08:44;5.73;;;3.33;;
2408;SDS011;8463;48.094;7.970;2023-09-30T03:11:09;5.17;;;2.40;;
2408;SDS011;8463;48.094;7.970;2023-09-30T03:13:35;4.00;;;2.83;;
2408;SDS011;8463;48.094;7.970;2023-09-30T03:16:02;6.17;;;2.50;;
2408;SDS011;8463;48.094;7.970;2023-09-30T03:18:28;4.77;;;2.20;;
2408;SDS011;8463;48.094;7.970;2023-09-30T03:20:58;3.40;;;2.03;;
2408;SDS011;8463;48.094;7.970;2023-09-30T03:23:28;4.60;;;2.17;;
2408;SDS011;8463;48.094;7.970;2023-09-30T03:25:57;8.80;;;2.40;;
2408;SDS011;8463;48.094;7.970;2023-09-30T03:28:23;5.20;;;3.30;;
2408;SDS011;8463;48.094;7.970;2023-09-30T03:30:49;3.20;;;2.03;;
2408;SDS011;8463;48.094;7.970;2023-09-30T03:33:15;4.90;;;2.43;;
2408;SDS011;8463;48.094;7.970;2023-09-30T03:35:40;2.70;;;1.97;;
2408;SDS011;8463;48.094;7.970;2023-09-30T03:38:06;7.80;;;3.10;;
2408;SDS011;8463;48.094;7.970;2023-09-30T03:40:34;5.97;;;2.03;;
2408;SDS011;8463;48.094;7.970;2023-09-30T03:43:03;4.20;;;2.17;;
2408;SDS011;8463;48.094;7.970;2023-09-30T03:45:30;5.00;;;2.40;;
2408;SDS011;8463;48.094;7.970;2023-09-30T03:47:59;4.80;;;2.63;;
2408;SDS011;8463;48.094;7.970;2023-09-30T03:50:27;2.97;;;2.10;;
2408;SDS011;8463;48.094;7.970;2023-09-30T03:53:00;4.33;;;2.60;;
2408;SDS011;8463;48.094;7.970;2023-09-30T03:55:26;4.30;;;2.60;;
2408;SDS011;8463;48.094;7.970;2023-09-30T03:57:54;4.60;;;2.63;;
2408;SDS011;8463;48.094;7.970;2023-09-30T04:00:20;4.17;;;2.10;;
2408;SDS011;8463;48.094;7.970;2023-09-30T04:02:47;4.07;;;2.37;;
2408;SDS011;8463;48.094;7.970;2023-09-30T04:05:19;4.00;;;2.47;;
2408;SDS011;8463;48.094;7.970;2023-09-30T04:07:51;6.20;;;2.23;;
2408;SDS011;8463;48.094;7.970;2023-09-30T04:10:16;5.90;;;2.40;;
2408;SDS011;8463;48.094;7.970;2023-09-30T04:12:42;5.83;;;2.63;;
2408;SDS011;8463;48.094;7.970;2023-09-30T04:15:08;3.67;;;2.27;;
2408;SDS011;8463;48.094;7.970;2023-09-30T04:17:37;2.97;;;2.40;;
2408;SDS011;8463;48.094;7.970;2023-09-30T04:20:04;4.60;;;2.60;;
2408;SDS011;8463;48.094;7.970;2023-09-30T04:22:33;3.40;;;1.70;;
2408;SDS011;8463;48.094;7.970;2023-09-30T04:25:00;3.90;;;2.33;;
2408;SDS011;8463;48.094;7.970;2023-09-30T04:27:26;3.83;;;2.13;;
2408;SDS011;8463;48.094;7.970;2023-09-30T04:29:52;5.17;;;2.40;;
2408;SDS011;8463;48.094;7.970;2023-09-30T04:32:18;5.77;;;3.43;;
2408;SDS011;8463;48.094;7.970;2023-09-30T04:34:44;5.13;;;2.63;;
2408;SDS011;8463;48.094;7.970;2023-09-30T04:37:12;5.10;;;3.10;;
2408;SDS011;8463;48.094;7.970;2023-09-30T04:39:39;4.33;;;3.53;;
2408;SDS011;8463;48.094;7.970;2023-09-30T04:42:04;3.47;;;2.57;;
2408;SDS011;8463;48.094;7.970;2023-09-30T04:44:30;3.60;;;2.07;;
2408;SDS011;8463;48.094;7.970;2023-09-30T04:46:56;3.90;;;2.73;;
2408;SDS011;8463;48.094;7.970;2023-09-30T04:49:22;5.70;;;2.23;;
2408;SDS011;8463;48.094;7.970;2023-09-30T04:51:48;4.57;;;2.97;;
2408;SDS011;8463;48.094;7.970;2023-09-30T04:54:14;3.70;;;2.40;;
2408;SDS011;8463;48.094;7.970;2023-09-30T04:56:40;3.03;;;1.93;;
2408;SDS011;8463;48.094;7.970;2023-09-30T04:59:06;6.10;;;2.37;;
2408;SDS011;8463;48.094;7.970;2023-09-30T05:01:32;5.93;;;2.50;;
2408;SDS011;8463;48.094;7.970;2023-09-30T05:03:57;4.57;;;3.10;;
2408;SDS011;8463;48.094;7.970;2023-09-30T05:06:24;4.33;;;2.80;;
2408;SDS011;8463;48.094;7.970;2023-09-30T05:08:49;7.80;;;2.87;;
2408;SDS011;8463;48.094;7.970;2023-09-30T05:11:15;5.80;;;2.50;;
2408;SDS011;8463;48.094;7.970;2023-09-30T05:13:41;5.50;;;2.77;;
2408;SDS011;8463;48.094;7.970;2023-09-30T05:16:06;5.27;;;2.37;;
2408;SDS011;8463;48.094;7.970;2023-09-30T05:18:32;5.87;;;2.50;;
2408;SDS011;8463;48.094;7.970;2023-09-30T05:20:58;3.77;;;2.67;;
2408;SDS011;8463;48.094;7.970;2023-09-30T05:23:25;4.30;;;2.37;;
2408;SDS011;8463;48.094;7.970;2023-09-30T05:25:51;5.60;;;3.17;;
2408;SDS011;8463;48.094;7.970;2023-09-30T05:28:17;4.60;;;2.50;;
2408;SDS011;8463;48.094;7.970;2023-09-30T05:30:45;4.13;;;2.40;;
2408;SDS011;8463;48.094;7.970;2023-09-30T05:33:10;4.90;;;2.47;;
2408;SDS011;8463;48.094;7.970;2023-09-30T05:35:39;4.07;;;2.50;;
2408;SDS011;8463;48.094;7.970;2023-09-30T05:38:06;5.37;;;3.00;;
2408;SDS011;8463;48.094;7.970;2023-09-30T05:40:32;5.63;;;2.67;;
2408;SDS011;8463;48.094;7.970;2023-09-30T05:42:58;6.80;;;3.00;;
2408;SDS011;8463;48.094;7.970;2023-09-30T05:45:24;3.80;;;2.40;;
2408;SDS011;8463;48.094;7.970;2023-09-30T05:47:54;3.77;;;2.80;;
2408;SDS011;8463;48.094;7.970;2023-09-30T05:50:21;4.80;;;2.63;;
2408;SDS011;8463;48.094;7.970;2023-09-30T05:52:51;7.43;;;3.03;;
2408;SDS011;8463;48.094;7.970;2023-09-30T05:55:18;4.63;;;2.40;;
2408;SDS011;8463;48.094;7.970;2023-09-30T05:57:47;4.20;;;2.27;;
2408;SDS011;8463;48.094;7.970;2023-09-30T06:00:15;3.07;;;1.93;;
2408;SDS011;8463;48.094;7.970;2023-09-30T06:03:07;5.20;;;2.13;;
2408;SDS011;8463;48.094;7.970;2023-09-30T06:05:38;6.30;;;3.07;;
2408;SDS011;8463;48.094;7.970;2023-09-30T06:08:08;3.07;;;2.37;;
2408;SDS011;8463;48.094;7.970;2023-09-30T06:10:39;4.27;;;3.10;;
2408;SDS011;8463;48.094;7.970;2023-09-30T06:13:08;2.63;;;2.30;;
2408;SDS011;8463;48.094;7.970;2023-09-30T06:15:41;5.00;;;3.27;;
2408;SDS011;8463;48.094;7.970;2023-09-30T06:18:08;7.57;;;3.40;;
2408;SDS011;8463;48.094;7.970;2023-09-30T06:20:37;4.97;;;2.77;;
2408;SDS011;8463;48.094;7.970;2023-09-30T06:23:03;4.77;;;2.50;;
2408;SDS011;8463;48.094;7.970;2023-09-30T06:25:28;4.07;;;2.40;;
2408;SDS011;8463;48.094;7.970;2023-09-30T06:27:55;5.63;;;2.60;;
2408;SDS011;8463;48.094;7.970;2023-09-30T06:30:21;5.23;;;3.03;;
2408;SDS011;8463;48.094;7.970;2023-09-30T06:32:56;6.17;;;2.30;;
2408;SDS011;8463;48.094;7.970;2023-09-30T06:35:23;5.73;;;2.87;;
2408;SDS011;8463;48.094;7.970;2023-09-30T06:37:48;5.10;;;2.90;;
2408;SDS011;8463;48.094;7.970;2023-09-30T06:40:14;3.47;;;2.43;;
2408;SDS011;8463;48.094;7.970;2023-09-30T06:42:40;4.73;;;2.83;;
2408;SDS011;8463;48.094;7.970;2023-09-30T06:45:10;5.27;;;2.80;;
2408;SDS011;8463;48.094;7.970;2023-09-30T06:47:38;5.33;;;2.83;;
2408;SDS011;8463;48.094;7.970;2023-09-30T06:50:09;3.97;;;2.77;;
2408;SDS011;8463;48.094;7.970;2023-09-30T06:52:38;6.83;;;3.37;;
2408;SDS011;8463;48.094;7.970;2023-09-30T06:55:06;4.13;;;2.77;;
2408;SDS011;8463;48.094;7.970;2023-09-30T06:57:33;4.87;;;2.70;;
2408;SDS011;8463;48.094;7.970;2023-09-30T07:00:06;5.10;;;2.57;;
2408;SDS011;8463;48.094;7.970;2023-09-30T07:02:37;6.30;;;2.73;;
2408;SDS011;8463;48.094;7.970;2023-09-30T07:05:14;6.50;;;2.70;;
2408;SDS011;8463;48.094;7.970;2023-09-30T07:07:40;5.10;;;3.33;;
2408;SDS011;8463;48.094;7.970;2023-09-30T07:10:09;3.40;;;2.90;;
2408;SDS011;8463;48.094;7.970;2023-09-30T07:12:36;5.87;;;2.50;;
2408;SDS011;8463;48.094;7.970;2023-09-30T07:15:02;5.93;;;3.70;;
2408;SDS011;8463;48.094;7.970;2023-09-30T07:17:29;7.93;;;4.30;;
2408;SDS011;8463;48.094;7.970;2023-09-30T07:19:55;4.07;;;2.77;;
2408;SDS011;8463;48.094;7.970;2023-09-30T07:22:21;3.90;;;2.63;;
2408;SDS011;8463;48.094;7.970;2023-09-30T07:24:47;3.63;;;2.60;;
2408;SDS011;8463;48.094;7.970;2023-09-30T07:27:13;5.13;;;3.40;;
2408;SDS011;8463;48.094;7.970;2023-09-30T07:29:39;7.63;;;3.53;;
2408;SDS011;8463;48.094;7.970;2023-09-30T07:32:06;5.77;;;3.33;;
2408;SDS011;8463;48.094;7.970;2023-09-30T07:34:35;5.00;;;3.43;;
2408;SDS011;8463;48.094;7.970;2023-09-30T07:37:00;6.40;;;3.47;;
2408;SDS011;8463;48.094;7.970;2023-09-30T07:39:26;3.60;;;2.50;;
2408;SDS011;8463;48.094;7.970;2023-09-30T07:41:52;5.87;;;3.10;;
2408;SDS011;8463;48.094;7.970;2023-09-30T07:44:17;5.87;;;3.73;;
2408;SDS011;8463;48.094;7.970;2023-09-30T07:46:45;4.97;;;2.50;;
2408;SDS011;8463;48.094;7.970;2023-09-30T07:49:12;3.97;;;2.37;;
2408;SDS011;8463;48.094;7.970;2023-09-30T07:51:37;4.07;;;2.43;;
2408;SDS011;8463;48.094;7.970;2023-09-30T07:54:06;4.70;;;2.90;;
2408;SDS011;8463;48.094;7.970;2023-09-30T07:56:42;7.77;;;2.67;;
2408;SDS011;8463;48.094;7.970;2023-09-30T07:59:07;6.13;;;3.00;;
2408;SDS011;8463;48.094;7.970;2023-09-30T08:01:33;6.60;;;4.10;;
2408;SDS011;8463;48.094;7.970;2023-09-30T08:03:59;6.27;;;3.23;;
2408;SDS011;8463;48.094;7.970;2023-09-30T08:06:24;5.50;;;3.40;;
2408;SDS011;8463;48.094;7.970;2023-09-30T08:08:50;6.60;;;3.50;;
2408;SDS011;8463;48.094;7.970;2023-09-30T08:11:17;5.87;;;4.00;;
2408;SDS011;8463;48.094;7.970;2023-09-30T08:13:45;4.20;;;2.37;;
2408;SDS011;8463;48.094;7.970;2023-09-30T08:16:11;5.00;;;3.93;;
2408;SDS011;8463;48.094;7.970;2023-09-30T08:18:37;5.20;;;3.13;;
2408;SDS011;8463;48.094;7.970;2023-09-30T08:21:02;10.50;;;2.90;;
2408;SDS011;8463;48.094;7.970;2023-09-30T08:23:30;5.83;;;3.07;;
2408;SDS011;8463;48.094;7.970;2023-09-30T08:25:59;6.57;;;3.20;;
2408;SDS011;8463;48.094;7.970;2023-09-30T08:28:24;5.47;;;3.40;;
2408;SDS011;8463;48.094;7.970;2023-09-30T08:30:50;5.73;;;3.10;;
2408;SDS011;8463;48.094;7.970;2023-09-30T08:33:19;6.20;;;3.50;;
2408;SDS011;8463;48.094;7.970;2023-09-30T08:35:45;7.03;;;2.93;;
2408;SDS011;8463;48.094;7.970;2023-09-30T08:38:10;5.83;;;3.60;;
2408;SDS011;8463;48.094;7.970;2023-09-30T08:40:36;5.30;;;3.13;;
2408;SDS011;8463;48.094;7.970;2023-09-30T08:43:03;5.23;;;3.00;;
2408;SDS011;8463;48.094;7.970;2023-09-30T08:45:30;6.90;;;4.10;;
2408;SDS011;8463;48.094;7.970;2023-09-30T08:48:03;4.77;;;3.30;;
2408;SDS011;8463;48.094;7.970;2023-09-30T08:50:31;7.77;;;3.17;;
2408;SDS011;8463;48.094;7.970;2023-09-30T08:53:00;9.70;;;3.40;;
2408;SDS011;8463;48.094;7.970;2023-09-30T08:55:28;5.00;;;4.50;;
2408;SDS011;8463;48.094;7.970;2023-09-30T08:57:54;4.70;;;3.40;;
2408;SDS011;8463;48.094;7.970;2023-09-30T09:00:21;8.47;;;3.37;;
2408;SDS011;8463;48.094;7.970;2023-09-30T09:02:51;7.20;;;3.33;;
2408;SDS011;8463;48.094;7.970;2023-09-30T09:05:20;9.17;;;3.27;;
2408;SDS011;8463;48.094;7.970;2023-09-30T09:07:45;6.00;;;3.03;;
2408;SDS011;8463;48.094;7.970;2023-09-30T09:10:12;5.90;;;3.33;;
2408;SDS011;8463;48.094;7.970;2023-09-30T09:12:39;5.27;;;3.00;;
2408;SDS011;8463;48.094;7.970;2023-09-30T09:15:05;5.70;;;3.33;;
2408;SDS011;8463;48.094;7.970;2023-09-30T09:17:42;6.50;;;3.77;;
2408;SDS011;8463;48.094;7.970;2023-09-30T09:20:09;5.87;;;3.23;;
2408;SDS011;8463;48.094;7.970;2023-09-30T09:22:46;6.27;;;3.00;;
2408;SDS011;8463;48.094;7.970;2023-09-30T09:25:13;5.57;;;3.20;;
2408;SDS011;8463;48.094;7.970;2023-09-30T09:27:38;4.70;;;3.17;;
2408;SDS011;8463;48.094;7.970;2023-09-30T09:30:17;4.77;;;2.80;;
2408;SDS011;8463;48.094;7.970;2023-09-30T09:33:03;5.60;;;3.70;;
2408;SDS011;8463;48.094;7.970;2023-09-30T09:35:30;5.47;;;3.00;;
2408;SDS011;8463;48.094;7.970;2023-09-30T09:40:35;4.30;;;2.87;;
2408;SDS011;8463;48.094;7.970;2023-09-30T09:43:03;5.57;;;2.63;;
2408;SDS011;8463;48.094;7.970;2023-09-30T09:45:30;4.57;;;2.97;;
2408;SDS011;8463;48.094;7.970;2023-09-30T09:48:00;5.30;;;3.30;;
2408;SDS011;8463;48.094;7.970;2023-09-30T09:50:26;5.30;;;3.60;;
2408;SDS011;8463;48.094;7.970;2023-09-30T09:52:53;5.93;;;3.63;;
2408;SDS011;8463;48.094;7.970;2023-09-30T09:55:21;5.00;;;2.97;;
2408;SDS011;8463;48.094;7.970;2023-09-30T09:57:48;5.57;;;3.60;;
2408;SDS011;8463;48.094;7.970;2023-09-30T10:00:18;4.60;;;2.90;;
2408;SDS011;8463;48.094;7.970;2023-09-30T10:02:46;7.50;;;3.43;;
2408;SDS011;8463;48.094;7.970;2023-09-30T10:05:12;6.37;;;3.40;;
2408;SDS011;8463;48.094;7.970;2023-09-30T10:10:19;5.90;;;2.80;;
2408;SDS011;8463;48.094;7.970;2023-09-30T10:12:47;6.60;;;3.23;;
2408;SDS011;8463;48.094;7.970;2023-09-30T10:20:28;6.83;;;3.37;;
2408;SDS011;8463;48.094;7.970;2023-09-30T10:25:47;7.60;;;2.93;;
2408;SDS011;8463;48.094;7.970;2023-09-30T10:31:15;8.70;;;3.87;;
2408;SDS011;8463;48.094;7.970;2023-09-30T10:34:26;6.60;;;3.63;;
2408;SDS011;8463;48.094;7.970;2023-09-30T10:36:33;5.20;;;3.20;;
2408;SDS011;8463;48.094;7.970;2023-09-30T10:39:10;7.40;;;4.33;;
2408;SDS011;8463;48.094;7.970;2023-09-30T10:46:50;8.23;;;3.97;;
2408;SDS011;8463;48.094;7.970;2023-09-30T10:49:37;7.23;;;4.47;;
2408;SDS011;8463;48.094;7.970;2023-09-30T10:52:06;6.40;;;3.80;;
2408;SDS011;8463;48.094;7.970;2023-09-30T10:54:32;6.03;;;4.00;;
2408;SDS011;8463;48.094;7.970;2023-09-30T10:56:58;5.33;;;3.70;;
2408;SDS011;8463;48.094;7.970;2023-09-30T10:59:25;7.17;;;4.80;;
2408;SDS011;8463;48.094;7.970;2023-09-30T11:01:52;8.37;;;4.43;;
2408;SDS011;8463;48.094;7.970;2023-09-30T11:04:18;8.20;;;4.47;;
2408;SDS011;8463;48.094;7.970;2023-09-30T11:06:45;6.57;;;3.70;;
2408;SDS011;8463;48.094;7.970;2023-09-30T11:09:15;8.13;;;5.50;;
2408;SDS011;8463;48.094;7.970;2023-09-30T11:11:44;8.27;;;4.27;;
2408;SDS011;8463;48.094;7.970;2023-09-30T11:16:48;6.73;;;3.60;;
2408;SDS011;8463;48.094;7.970;2023-09-30T11:19:15;9.63;;;5.10;;
2408;SDS011;8463;48.094;7.970;2023-09-30T11:21:41;9.27;;;5.40;;
2408;SDS011;8463;48.094;7.970;2023-09-30T11:24:09;6.93;;;3.50;;
2408;SDS011;8463;48.094;7.970;2023-09-30T11:26:35;8.83;;;5.20;;
2408;SDS011;8463;48.094;7.970;2023-09-30T11:29:05;7.97;;;5.43;;
2408;SDS011;8463;48.094;7.970;2023-09-30T11:31:39;7.90;;;4.97;;
2408;SDS011;8463;48.094;7.970;2023-09-30T11:34:06;10.60;;;5.20;;
2408;SDS011;8463;48.094;7.970;2023-09-30T11:36:36;13.80;;;5.80;;
2408;SDS011;8463;48.094;7.970;2023-09-30T11:39:03;7.27;;;4.60;;
2408;SDS011;8463;48.094;7.970;2023-09-30T11:41:33;9.17;;;4.60;;
2408;SDS011;8463;48.094;7.970;2023-09-30T11:44:04;9.10;;;5.00;;
2408;SDS011;8463;48.094;7.970;2023-09-30T11:46:32;9.10;;;4.97;;
2408;SDS011;8463;48.094;7.970;2023-09-30T11:49:12;12.80;;;5.27;;
2408;SDS011;8463;48.094;7.970;2023-09-30T11:51:42;8.60;;;5.23;;
2408;SDS011;8463;48.094;7.970;2023-09-30T11:54:13;9.73;;;5.60;;
2408;SDS011;8463;48.094;7.970;2023-09-30T11:56:41;8.30;;;5.23;;
2408;SDS011;8463;48.094;7.970;2023-09-30T11:59:07;9.10;;;5.57;;
2408;SDS011;8463;48.094;7.970;2023-09-30T12:01:35;9.37;;;6.33;;
2408;SDS011;8463;48.094;7.970;2023-09-30T12:04:04;10.27;;;6.57;;
2408;SDS011;8463;48.094;7.970;2023-09-30T12:06:30;11.43;;;5.53;;
2408;SDS011;8463;48.094;7.970;2023-09-30T12:08:56;8.77;;;5.67;;
2408;SDS011;8463;48.094;7.970;2023-09-30T12:11:24;9.80;;;6.00;;
2408;SDS011;8463;48.094;7.970;2023-09-30T12:13:49;10.60;;;5.30;;
2408;SDS011;8463;48.094;7.970;2023-09-30T12:16:16;8.40;;;5.20;;
2408;SDS011;8463;48.094;7.970;2023-09-30T12:18:41;8.10;;;4.90;;
2408;SDS011;8463;48.094;7.970;2023-09-30T12:21:09;10.47;;;5.73;;
2408;SDS011;8463;48.094;7.970;2023-09-30T12:23:36;6.83;;;3.73;;
2408;SDS011;8463;48.094;7.970;2023-09-30T12:26:05;8.60;;;5.30;;
2408;SDS011;8463;48.094;7.970;2023-09-30T12:28:31;9.93;;;5.50;;
2408;SDS011;8463;48.094;7.970;2023-09-30T12:30:58;7.30;;;4.70;;
2408;SDS011;8463;48.094;7.970;2023-09-30T12:33:27;6.87;;;4.40;;
2408;SDS011;8463;48.094;7.970;2023-09-30T12:35:57;11.20;;;4.80;;
2408;SDS011;8463;48.094;7.970;2023-09-30T12:38:25;10.77;;;5.40;;
2408;SDS011;8463;48.094;7.970;2023-09-30T12:40:52;6.77;;;4.73;;
2408;SDS011;8463;48.094;7.970;2023-09-30T12:43:19;7.87;;;4.43;;
2408;SDS011;8463;48.094;7.970;2023-09-30T12:45:45;9.50;;;5.50;;
2408;SDS011;8463;48.094;7.970;2023-09-30T12:48:12;7.90;;;4.97;;
2408;SDS011;8463;48.094;7.970;2023-09-30T12:50:38;8.77;;;4.67;;
2408;SDS011;8463;48.094;7.970;2023-09-30T12:53:03;6.87;;;4.43;;
2408;SDS011;8463;48.094;7.970;2023-09-30T12:55:30;7.77;;;5.20;;
2408;SDS011;8463;48.094;7.970;2023-09-30T12:57:55;8.67;;;5.20;;
2408;SDS011;8463;48.094;7.970;2023-09-30T13:00:21;7.63;;;4.50;;
2408;SDS011;8463;48.094;7.970;2023-09-30T13:02:47;11.53;;;4.53;;
2408;SDS011;8463;48.094;7.970;2023-09-30T13:05:13;8.67;;;5.33;;
2408;SDS011;8463;48.094;7.970;2023-09-30T13:07:41;8.20;;;4.80;;
2408;SDS011;8463;48.094;7.970;2023-09-30T13:10:07;7.73;;;4.47;;
2408;SDS011;8463;48.094;7.970;2023-09-30T13:12:34;8.03;;;5.63;;
2408;SDS011;8463;48.094;7.970;2023-09-30T13:15:00;8.20;;;4.33;;
2408;SDS011;8463;48.094;7.970;2023-09-30T13:17:26;7.00;;;4.60;;
2408;SDS011;8463;48.094;7.970;2023-09-30T13:19:51;7.43;;;4.80;;
2408;SDS011;8463;48.094;7.970;2023-09-30T13:22:17;7.27;;;5.13;;
2408;SDS011;8463;48.094;7.970;2023-09-30T13:24:43;7.73;;;5.33;;
2408;SDS011;8463;48.094;7.970;2023-09-30T13:27:09;8.00;;;5.30;;
2408;SDS011;8463;48.094;7.970;2023-09-30T13:29:35;8.37;;;5.20;;
2408;SDS011;8463;48.094;7.970;2023-09-30T13:32:01;9.60;;;4.90;;
2408;SDS011;8463;48.094;7.970;2023-09-30T13:34:27;8.50;;;4.67;;
2408;SDS011;8463;48.094;7.970;2023-09-30T13:36:54;9.20;;;4.80;;
2408;SDS011;8463;48.094;7.970;2023-09-30T13:39:21;11.30;;;5.90;;
2408;SDS011;8463;48.094;7.970;2023-09-30T13:41:46;6.97;;;4.93;;
2408;SDS011;8463;48.094;7.970;2023-09-30T13:44:13;8.70;;;5.60;;
2408;SDS011;8463;48.094;7.970;2023-09-30T13:46:39;8.33;;;5.00;;
2408;SDS011;8463;48.094;7.970;2023-09-30T13:49:04;7.30;;;4.40;;
2408;SDS011;8463;48.094;7.970;2023-09-30T13:51:30;9.40;;;5.23;;
2408;SDS011;8463;48.094;7.970;2023-09-30T13:53:55;9.93;;;5.67;;
2408;SDS011;8463;48.094;7.970;2023-09-30T13:56:25;7.60;;;4.87;;
2408;SDS011;8463;48.094;7.970;2023-09-30T13:58:55;8.20;;;4.80;;
2408;SDS011;8463;48.094;7.970;2023-09-30T14:01:22;10.20;;;5.63;;
2408;SDS011;8463;48.094;7.970;2023-09-30T14:03:48;9.43;;;5.10;;
2408;SDS011;8463;48.094;7.970;2023-09-30T14:06:14;9.63;;;5.13;;
2408;SDS011;8463;48.094;7.970;2023-09-30T14:08:40;7.70;;;4.53;;
2408;SDS011;8463;48.094;7.970;2023-09-30T14:11:11;7.70;;;5.50;;
2408;SDS011;8463;48.094;7.970;2023-09-30T14:13:37;8.00;;;5.27;;
2408;SDS011;8463;48.094;7.970;2023-09-30T14:16:04;7.17;;;5.00;;
2408;SDS011;8463;48.094;7.970;2023-09-30T14:18:30;7.30;;;5.53;;
2408;SDS011;8463;48.094;7.970;2023-09-30T14:20:56;9.40;;;5.57;;
2408;SDS011;8463;48.094;7.970;2023-09-30T14:23:21;11.00;;;6.50;;
2408;SDS011;8463;48.094;7.970;2023-09-30T14:25:48;10.87;;;6.00;;
2408;SDS011;8463;48.094;7.970;2023-09-30T14:28:14;9.57;;;5.97;;
2408;SDS011;8463;48.094;7.970;2023-09-30T14:30:40;9.23;;;4.80;;
2408;SDS011;8463;48.094;7.970;2023-09-30T14:33:06;10.03;;;5.87;;
2408;SDS011;8463;48.094;7.970;2023-09-30T14:35:34;8.23;;;5.47;;
2408;SDS011;8463;48.094;7.970;2023-09-30T14:38:02;9.47;;;4.97;;
2408;SDS011;8463;48.094;7.970;2023-09-30T14:40:28;8.20;;;5.40;;
2408;SDS011;8463;48.094;7.970;2023-09-30T14:42:54;10.77;;;5.87;;
2408;SDS011;8463;48.094;7.970;2023-09-30T14:45:19;9.00;;;5.43;;
2408;SDS011;8463;48.094;7.970;2023-09-30T14:47:46;10.20;;;5.33;;
2408;SDS011;8463;48.094;7.970;2023-09-30T14:50:14;8.63;;;5.53;;
2408;SDS011;8463;48.094;7.970;2023-09-30T14:52:41;9.30;;;5.07;;
2408;SDS011;8463;48.094;7.970;2023-09-30T14:55:08;10.93;;;5.20;;
2408;SDS011;8463;48.094;7.970;2023-09-30T14:57:34;8.30;;;5.13;;
2408;SDS011;8463;48.094;7.970;2023-09-30T15:00:00;7.97;;;5.20;;
2408;SDS011;8463;48.094;7.970;2023-09-30T15:02:25;9.30;;;5.57;;
2408;SDS011;8463;48.094;7.970;2023-09-30T15:04:51;10.30;;;5.47;;
2408;SDS011;8463;48.094;7.970;2023-09-30T15:07:18;9.50;;;5.90;;
2408;SDS011;8463;48.094;7.970;2023-09-30T15:09:44;9.57;;;5.07;;
2408;SDS011;8463;48.094;7.970;2023-09-30T15:12:09;9.90;;;5.43;;
2408;SDS011;8463;48.094;7.970;2023-09-30T15:14:35;10.27;;;5.83;;
2408;SDS011;8463;48.094;7.970;2023-09-30T15:17:00;8.57;;;5.90;;
2408;SDS011;8463;48.094;7.970;2023-09-30T15:19:26;8.53;;;5.27;;
2408;SDS011;8463;48.094;7.970;2023-09-30T15:21:52;10.10;;;5.40;;
2408;SDS011;8463;48.094;7.970;2023-09-30T15:24:17;7.30;;;4.73;;
2408;SDS011;8463;48.094;7.970;2023-09-30T15:26:43;9.90;;;4.90;;
2408;SDS011;8463;48.094;7.970;2023-09-30T15:29:09;9.80;;;5.60;;
2408;SDS011;8463;48.094;7.970;2023-09-30T15:31:34;7.97;;;5.40;;
2408;SDS011;8463;48.094;7.970;2023-09-30T15:34:00;10.63;;;5.20;;
2408;SDS011;8463;48.094;7.970;2023-09-30T15:36:26;8.80;;;5.27;;
2408;SDS011;8463;48.094;7.970;2023-09-30T15:38:52;9.03;;;5.93;;